sensor_id;sensor_type;location;lat;lon;timestamp;pressure;altitude;pressure_sealevel;temperature;humidity
70458;BME280;57919;56.194;95.716;2024-02-26T00:08:30;101305.69;;;-23.80;57.89
70458;BME280;57919;56.194;95.716;2024-02-26T00:18:32;101293.97;;;-23.99;57.68
70458;BME280;57919;56.194;95.716;2024-02-26T00:28:34;101308.25;;;-23.90;57.44
70458;BME280;57919;56.194;95.716;2024-02-26T00:38:36;101308.66;;;-23.96;57.28
70458;BME280;57919;56.194;95.716;2024-02-26T00:48:38;101327.22;;;-24.09;57.29
70458;BME280;57919;56.194;95.716;2024-02-26T00:58:40;101330.94;;;-24.05;56.86
70458;BME280;57919;56.194;95.716;2024-02-26T01:08:42;101336.81;;;-24.16;57.10
70458;BME280;57919;56.194;95.716;2024-02-26T01:18:44;101342.06;;;-24.15;57.63
70458;BME280;57919;56.194;95.716;2024-02-26T01:28:46;101351.97;;;-23.77;57.83
70458;BME280;57919;56.194;95.716;2024-02-26T01:38:48;101365.88;;;-23.64;57.81
70458;BME280;57919;56.194;95.716;2024-02-26T01:48:50;101367.53;;;-23.64;57.48
70458;BME280;57919;56.194;95.716;2024-02-26T01:58:52;101362.91;;;-23.26;58.03
70458;BME280;57919;56.194;95.716;2024-02-26T02:08:54;101367.97;;;-23.16;58.16
70458;BME280;57919;56.194;95.716;2024-02-26T02:18:57;101347.63;;;-22.59;57.88
70458;BME280;57919;56.194;95.716;2024-02-26T02:29:00;101357.28;;;-21.53;57.67
70458;BME280;57919;56.194;95.716;2024-02-26T02:39:02;101357.44;;;-20.42;57.16
70458;BME280;57919;56.194;95.716;2024-02-26T02:49:08;101339.78;;;-19.59;56.34
70458;BME280;57919;56.194;95.716;2024-02-26T02:59:10;101350.78;;;-18.81;54.98
70458;BME280;57919;56.194;95.716;2024-02-26T03:09:13;101346.41;;;-18.26;54.42
70458;BME280;57919;56.194;95.716;2024-02-26T03:19:15;101360.28;;;-17.67;54.17
70458;BME280;57919;56.194;95.716;2024-02-26T03:29:18;101354.56;;;-17.01;53.93
70458;BME280;57919;56.194;95.716;2024-02-26T03:39:20;101351.81;;;-16.41;52.69
70458;BME280;57919;56.194;95.716;2024-02-26T03:49:21;101348.41;;;-16.40;51.90
70458;BME280;57919;56.194;95.716;2024-02-26T03:59:24;101347.50;;;-16.24;51.98
70458;BME280;57919;56.194;95.716;2024-02-26T04:09:26;101346.75;;;-15.89;51.15
70458;BME280;57919;56.194;95.716;2024-02-26T04:19:28;101332.59;;;-15.95;49.19
70458;BME280;57919;56.194;95.716;2024-02-26T04:29:31;101334.38;;;-15.60;48.62
70458;BME280;57919;56.194;95.716;2024-02-26T04:39:33;101323.66;;;-15.84;50.11
70458;BME280;57919;56.194;95.716;2024-02-26T04:49:35;101328.56;;;-15.55;50.42
70458;BME280;57919;56.194;95.716;2024-02-26T04:59:37;101316.28;;;-15.23;50.80
70458;BME280;57919;56.194;95.716;2024-02-26T05:09:40;101294.69;;;-14.87;49.56
70458;BME280;57919;56.194;95.716;2024-02-26T05:19:43;101280.38;;;-14.59;49.17
70458;BME280;57919;56.194;95.716;2024-02-26T05:29:46;101285.69;;;-14.56;50.15
70458;BME280;57919;56.194;95.716;2024-02-26T05:39:48;101252.28;;;-14.28;49.90
70458;BME280;57919;56.194;95.716;2024-02-26T05:49:50;101265.13;;;-14.12;48.83
70458;BME280;57919;56.194;95.716;2024-02-26T05:59:52;101275.59;;;-14.10;49.42
70458;BME280;57919;56.194;95.716;2024-02-26T06:09:54;101270.84;;;-13.99;50.45
70458;BME280;57919;56.194;95.716;2024-02-26T06:19:56;101258.38;;;-13.66;49.08
70458;BME280;57919;56.194;95.716;2024-02-26T06:29:58;101257.38;;;-13.70;49.34
70458;BME280;57919;56.194;95.716;2024-02-26T06:40:00;101245.56;;;-13.83;50.15
70458;BME280;57919;56.194;95.716;2024-02-26T06:50:05;101259.19;;;-13.88;49.62
70458;BME280;57919;56.194;95.716;2024-02-26T07:00:09;101246.44;;;-14.03;49.47
70458;BME280;57919;56.194;95.716;2024-02-26T07:10:15;101256.59;;;-13.88;50.66
70458;BME280;57919;56.194;95.716;2024-02-26T07:20:18;101238.69;;;-14.22;50.11
70458;BME280;57919;56.194;95.716;2024-02-26T07:30:20;101244.81;;;-14.60;51.81
70458;BME280;57919;56.194;95.716;2024-02-26T07:40:23;101239.66;;;-14.40;51.74
70458;BME280;57919;56.194;95.716;2024-02-26T07:50:25;101226.13;;;-14.12;52.01
70458;BME280;57919;56.194;95.716;2024-02-26T08:00:27;101228.13;;;-13.85;51.91
70458;BME280;57919;56.194;95.716;2024-02-26T08:10:29;101224.81;;;-13.81;51.12
70458;BME280;57919;56.194;95.716;2024-02-26T08:20:31;101221.09;;;-13.88;50.94
70458;BME280;57919;56.194;95.716;2024-02-26T08:30:35;101217.91;;;-14.01;51.64
70458;BME280;57919;56.194;95.716;2024-02-26T08:40:37;101213.41;;;-14.06;51.01
70458;BME280;57919;56.194;95.716;2024-02-26T08:50:39;101214.28;;;-14.05;51.28
70458;BME280;57919;56.194;95.716;2024-02-26T09:00:41;101222.91;;;-14.06;51.85
70458;BME280;57919;56.194;95.716;2024-02-26T09:10:44;101219.63;;;-14.02;51.37
70458;BME280;57919;56.194;95.716;2024-02-26T09:20:46;101217.16;;;-13.99;51.49
70458;BME280;57919;56.194;95.716;2024-02-26T09:30:48;101226.03;;;-13.94;51.44
70458;BME280;57919;56.194;95.716;2024-02-26T09:40:53;101226.38;;;-14.26;51.95
70458;BME280;57919;56.194;95.716;2024-02-26T09:50:55;101224.31;;;-14.54;52.03
70458;BME280;57919;56.194;95.716;2024-02-26T10:00:57;101219.31;;;-14.50;52.89
70458;BME280;57919;56.194;95.716;2024-02-26T10:11:02;101228.00;;;-14.49;52.50
70458;BME280;57919;56.194;95.716;2024-02-26T10:21:04;101226.31;;;-14.68;53.24
70458;BME280;57919;56.194;95.716;2024-02-26T10:31:06;101226.63;;;-14.80;52.62
70458;BME280;57919;56.194;95.716;2024-02-26T10:41:13;101239.72;;;-14.96;53.29
70458;BME280;57919;56.194;95.716;2024-02-26T10:51:16;101230.34;;;-15.12;52.60
70458;BME280;57919;56.194;95.716;2024-02-26T11:01:20;101239.94;;;-15.28;52.69
70458;BME280;57919;56.194;95.716;2024-02-26T11:11:23;101251.66;;;-15.54;53.40
70458;BME280;57919;56.194;95.716;2024-02-26T11:21:26;101257.69;;;-15.73;52.68
70458;BME280;57919;56.194;95.716;2024-02-26T11:31:43;101253.91;;;-15.80;53.33
70458;BME280;57919;56.194;95.716;2024-02-26T11:41:46;101265.94;;;-15.98;52.95
70458;BME280;57919;56.194;95.716;2024-02-26T11:51:51;101267.56;;;-16.34;52.65
70458;BME280;57919;56.194;95.716;2024-02-26T12:01:54;101275.28;;;-16.68;52.54
70458;BME280;57919;56.194;95.716;2024-02-26T12:11:56;101286.81;;;-16.94;53.31
70458;BME280;57919;56.194;95.716;2024-02-26T12:21:58;101283.22;;;-17.12;52.94
70458;BME280;57919;56.194;95.716;2024-02-26T12:32:01;101290.13;;;-17.27;53.60
70458;BME280;57919;56.194;95.716;2024-02-26T12:42:03;101302.66;;;-17.50;53.87
70458;BME280;57919;56.194;95.716;2024-02-26T12:52:06;101300.06;;;-17.81;53.49
70458;BME280;57919;56.194;95.716;2024-02-26T13:02:08;101318.13;;;-17.95;53.54
70458;BME280;57919;56.194;95.716;2024-02-26T13:12:11;101315.69;;;-18.22;53.83
70458;BME280;57919;56.194;95.716;2024-02-26T13:22:13;101322.53;;;-18.37;53.92
70458;BME280;57919;56.194;95.716;2024-02-26T13:32:16;101322.69;;;-18.49;54.15
70458;BME280;57919;56.194;95.716;2024-02-26T13:42:18;101316.72;;;-18.62;53.96
70458;BME280;57919;56.194;95.716;2024-02-26T13:52:19;101319.56;;;-18.86;55.02
70458;BME280;57919;56.194;95.716;2024-02-26T14:02:22;101317.78;;;-18.87;54.92
70458;BME280;57919;56.194;95.716;2024-02-26T14:12:23;101325.56;;;-18.72;55.36
70458;BME280;57919;56.194;95.716;2024-02-26T14:22:25;101317.69;;;-18.88;54.64
70458;BME280;57919;56.194;95.716;2024-02-26T14:32:31;101323.97;;;-19.11;55.08
70458;BME280;57919;56.194;95.716;2024-02-26T14:42:40;101335.78;;;-19.41;54.98
70458;BME280;57919;56.194;95.716;2024-02-26T14:52:43;101337.41;;;-19.70;55.07
70458;BME280;57919;56.194;95.716;2024-02-26T15:02:46;101336.56;;;-19.16;56.00
70458;BME280;57919;56.194;95.716;2024-02-26T15:12:48;101333.44;;;-19.78;54.36
70458;BME280;57919;56.194;95.716;2024-02-26T15:22:49;101341.22;;;-20.03;54.65
70458;BME280;57919;56.194;95.716;2024-02-26T15:32:52;101341.34;;;-20.26;54.82
70458;BME280;57919;56.194;95.716;2024-02-26T15:42:54;101353.19;;;-20.41;54.63
70458;BME280;57919;56.194;95.716;2024-02-26T15:52:56;101347.69;;;-20.59;55.43
70458;BME280;57919;56.194;95.716;2024-02-26T16:02:59;101350.88;;;-20.75;55.35
70458;BME280;57919;56.194;95.716;2024-02-26T16:13:04;101356.03;;;-20.86;55.43
70458;BME280;57919;56.194;95.716;2024-02-26T16:23:06;101361.44;;;-21.07;55.25
70458;BME280;57919;56.194;95.716;2024-02-26T16:33:09;101364.47;;;-21.12;55.19
70458;BME280;57919;56.194;95.716;2024-02-26T16:43:11;101377.16;;;-21.27;55.72
70458;BME280;57919;56.194;95.716;2024-02-26T16:53:13;101362.31;;;-21.43;55.71
70458;BME280;57919;56.194;95.716;2024-02-26T17:03:15;101383.41;;;-21.58;55.84
70458;BME280;57919;56.194;95.716;2024-02-26T17:13:17;101385.06;;;-21.82;55.46
70458;BME280;57919;56.194;95.716;2024-02-26T17:23:20;101407.50;;;-22.25;55.61
70458;BME280;57919;56.194;95.716;2024-02-26T17:33:22;101392.16;;;-22.47;56.48
70458;BME280;57919;56.194;95.716;2024-02-26T17:43:24;101413.38;;;-22.38;56.03
70458;BME280;57919;56.194;95.716;2024-02-26T17:53:26;101412.78;;;-22.45;55.88
70458;BME280;57919;56.194;95.716;2024-02-26T18:03:29;101406.16;;;-22.53;56.33
70458;BME280;57919;56.194;95.716;2024-02-26T18:13:31;101413.38;;;-22.59;56.02
70458;BME280;57919;56.194;95.716;2024-02-26T18:23:33;101419.81;;;-22.65;56.03
70458;BME280;57919;56.194;95.716;2024-02-26T18:33:35;101405.50;;;-22.73;56.44
70458;BME280;57919;56.194;95.716;2024-02-26T18:43:38;101421.41;;;-22.77;56.19
70458;BME280;57919;56.194;95.716;2024-02-26T18:53:40;101407.06;;;-22.97;56.36
70458;BME280;57919;56.194;95.716;2024-02-26T19:03:43;101421.97;;;-23.03;56.57
70458;BME280;57919;56.194;95.716;2024-02-26T19:13:45;101423.19;;;-23.19;56.17
70458;BME280;57919;56.194;95.716;2024-02-26T19:23:47;101409.75;;;-23.27;56.44
70458;BME280;57919;56.194;95.716;2024-02-26T19:33:49;101432.44;;;-23.32;56.51
70458;BME280;57919;56.194;95.716;2024-02-26T19:43:52;101433.88;;;-23.45;56.43
70458;BME280;57919;56.194;95.716;2024-02-26T19:53:54;101440.41;;;-23.49;56.12
70458;BME280;57919;56.194;95.716;2024-02-26T20:03:56;101425.63;;;-23.73;56.12
70458;BME280;57919;56.194;95.716;2024-02-26T20:13:59;101448.94;;;-23.80;56.02
70458;BME280;57919;56.194;95.716;2024-02-26T20:24:01;101442.66;;;-23.94;56.22
70458;BME280;57919;56.194;95.716;2024-02-26T20:34:03;101457.63;;;-24.09;56.24
70458;BME280;57919;56.194;95.716;2024-02-26T20:44:06;101458.13;;;-24.33;55.87
70458;BME280;57919;56.194;95.716;2024-02-26T20:54:09;101490.06;;;-24.38;56.41
70458;BME280;57919;56.194;95.716;2024-02-26T21:04:12;101486.88;;;-24.46;55.99
70458;BME280;57919;56.194;95.716;2024-02-26T21:14:15;101510.59;;;-24.57;56.50
70458;BME280;57919;56.194;95.716;2024-02-26T21:24:18;101507.09;;;-24.68;56.31
70458;BME280;57919;56.194;95.716;2024-02-26T21:34:19;101508.31;;;-24.83;56.43
70458;BME280;57919;56.194;95.716;2024-02-26T21:44:22;101506.63;;;-24.93;56.42
70458;BME280;57919;56.194;95.716;2024-02-26T21:54:24;101520.06;;;-24.85;56.38
70458;BME280;57919;56.194;95.716;2024-02-26T22:04:27;101535.72;;;-25.01;56.46
70458;BME280;57919;56.194;95.716;2024-02-26T22:14:29;101557.31;;;-24.97;56.47
70458;BME280;57919;56.194;95.716;2024-02-26T22:24:31;101558.28;;;-25.05;56.27
70458;BME280;57919;56.194;95.716;2024-02-26T22:34:33;101557.53;;;-25.23;56.44
70458;BME280;57919;56.194;95.716;2024-02-26T22:44:37;101555.94;;;-25.31;56.68
70458;BME280;57919;56.194;95.716;2024-02-26T22:54:40;101567.47;;;-25.26;56.65
70458;BME280;57919;56.194;95.716;2024-02-26T23:04:43;101570.03;;;-25.26;56.73
70458;BME280;57919;56.194;95.716;2024-02-26T23:14:45;101578.97;;;-25.40;56.47
70458;BME280;57919;56.194;95.716;2024-02-26T23:24:46;101594.25;;;-25.59;56.30
70458;BME280;57919;56.194;95.716;2024-02-26T23:34:48;101603.94;;;-25.65;56.26
70458;BME280;57919;56.194;95.716;2024-02-26T23:44:51;101610.78;;;-25.82;56.33
70458;BME280;57919;56.194;95.716;2024-02-26T23:54:53;101612.66;;;-25.99;56.50
